createdAt,value
2022-11-15T00:00:37.985Z,100224.16
2022-11-15T00:03:25.521Z,100220.56
2022-11-15T00:06:10.563Z,100203.63
2022-11-15T00:08:56.147Z,100194.69
2022-11-15T00:11:41.446Z,100178.97
2022-11-15T00:14:26.946Z,100169.69
2022-11-15T00:17:14.934Z,100152.28
2022-11-15T00:20:00.607Z,100136.16
2022-11-15T00:22:48.563Z,100136.03
2022-11-15T00:25:34.173Z,100112.59
2022-11-15T00:28:19.507Z,100107.25
2022-11-15T00:31:07.218Z,100093.19
2022-11-15T00:33:52.246Z,100086.47
2022-11-15T00:36:37.617Z,100079.53
2022-11-15T00:39:23.075Z,100070.13
2022-11-15T00:42:08.449Z,100053.63
2022-11-15T00:44:53.774Z,100052.59
2022-11-15T00:47:39.217Z,100038.59
2022-11-15T00:50:24.779Z,100036.72
2022-11-15T00:53:11.513Z,100020.47
2022-11-15T00:55:56.630Z,100016.56
2022-11-15T00:58:42.093Z,100003.53
2022-11-15T01:01:27.164Z,100000.81
2022-11-15T01:04:12.541Z,100004.53
2022-11-15T01:06:58.077Z,100004.00
2022-11-15T01:09:43.416Z,99998.91
2022-11-15T01:12:28.873Z,99996.25
2022-11-15T01:15:14.306Z,100002.91
2022-11-15T01:18:11.213Z,99991.63
2022-11-15T01:20:56.286Z,99989.25
2022-11-15T01:23:42.120Z,99971.56
2022-11-15T01:26:27.632Z,99980.19
2022-11-15T01:29:13.387Z,99961.47
2022-11-15T01:31:58.656Z,99960.47
2022-11-15T01:34:44.464Z,99950.63
2022-11-15T01:37:29.736Z,99944.88
2022-11-15T01:40:15.857Z,99937.66
2022-11-15T01:43:22.696Z,99924.94
2022-11-15T01:46:36.062Z,99920.81
2022-11-15T01:49:22.735Z,99921.41
2022-11-15T01:52:19.128Z,99904.56
2022-11-15T01:55:12.994Z,99910.94
2022-11-15T01:58:01.156Z,99915.66
2022-11-15T02:00:46.598Z,99907.03
2022-11-15T02:03:37.743Z,99902.50
2022-11-15T02:06:23.359Z,99906.00
2022-11-15T02:09:08.417Z,99906.63
2022-11-15T02:11:55.733Z,99901.03
2022-11-15T02:14:46.146Z,99905.97
2022-11-15T02:17:41.441Z,99916.91
2022-11-15T02:20:59.675Z,99917.53
2022-11-15T02:24:18.813Z,99906.41
2022-11-15T02:27:29.182Z,99917.94
2022-11-15T02:30:37.739Z,99918.97
2022-11-15T02:33:59.538Z,99919.16
2022-11-15T02:37:00.942Z,99923.88
2022-11-15T02:39:58.534Z,99931.69
2022-11-15T02:43:08.596Z,99925.72
2022-11-15T02:46:01.484Z,99934.16
2022-11-15T02:48:49.418Z,99932.91
2022-11-15T02:51:34.858Z,99939.91
2022-11-15T02:54:25.654Z,99930.22
2022-11-15T02:57:17.324Z,99937.44
2022-11-15T03:00:06.405Z,99928.34
2022-11-15T03:02:54.473Z,99933.06
2022-11-15T03:05:42.445Z,99923.59
2022-11-15T03:08:32.507Z,99927.69
2022-11-15T03:11:22.559Z,99936.38
2022-11-15T03:14:18.069Z,99934.53
2022-11-15T03:17:25.516Z,99931.44
2022-11-15T03:20:13.043Z,99934.13
2022-11-15T03:23:24.597Z,99933.31
2022-11-15T03:26:11.276Z,99941.53
2022-11-15T03:29:04.529Z,99933.06
2022-11-15T03:32:10.783Z,99944.53
2022-11-15T03:35:03.992Z,99942.28
2022-11-15T03:38:15.300Z,99941.44
2022-11-15T03:41:05.465Z,99942.47
2022-11-15T03:43:59.526Z,99937.94
2022-11-15T03:46:49.321Z,99936.69
2022-11-15T03:49:37.900Z,99947.63
2022-11-15T03:52:23.500Z,99942.69
2022-11-15T03:55:15.037Z,99935.28
2022-11-15T03:58:03.397Z,99944.72
2022-11-15T04:00:48.775Z,99934.00
2022-11-15T04:03:34.334Z,99930.47
2022-11-15T04:06:19.944Z,99928.22
2022-11-15T04:09:05.268Z,99920.38
2022-11-15T04:11:50.768Z,99923.41
2022-11-15T04:14:37.978Z,99919.09
2022-11-15T04:17:23.485Z,99912.75
2022-11-15T04:20:37.894Z,99917.28
2022-11-15T04:23:42.837Z,99915.19
2022-11-15T04:26:28.185Z,99908.38
2022-11-15T04:29:32.235Z,99908.56
2022-11-15T04:32:17.578Z,99908.78
2022-11-15T04:35:03.480Z,99910.19
2022-11-15T04:37:49.550Z,99909.78
2022-11-15T04:40:35.911Z,99910.25
2022-11-15T04:43:21.465Z,99900.59
2022-11-15T04:46:06.709Z,99916.91
2022-11-15T04:48:58.244Z,99907.25
2022-11-15T04:51:44.501Z,99899.84
2022-11-15T04:54:29.622Z,99901.66
2022-11-15T04:57:15.324Z,99909.31
2022-11-15T05:00:00.545Z,99911.72
2022-11-15T05:03:04.875Z,99905.75
2022-11-15T05:05:50.185Z,99908.88
2022-11-15T05:08:35.829Z,99914.44
2022-11-15T05:11:23.891Z,99904.16
2022-11-15T05:14:08.979Z,99904.91
2022-11-15T05:16:57.110Z,99903.09
2022-11-15T05:19:42.446Z,99905.69
2022-11-15T05:22:29.972Z,99892.88
2022-11-15T05:25:15.430Z,99888.03
2022-11-15T05:28:01.105Z,99884.34
2022-11-15T05:30:46.488Z,99883.53
2022-11-15T05:33:32.625Z,99885.16
2022-11-15T05:36:48.338Z,99877.38
2022-11-15T05:39:33.948Z,99872.41
2022-11-15T05:42:19.929Z,99861.94
2022-11-15T05:45:09.643Z,99867.06
2022-11-15T05:48:29.630Z,99863.75
2022-11-15T05:51:18.881Z,99856.34
2022-11-15T05:54:16.159Z,99846.06
2022-11-15T05:57:01.533Z,99850.19
2022-11-15T05:59:47.069Z,99847.53
2022-11-15T06:02:32.677Z,99847.94
2022-11-15T06:05:17.917Z,99853.31
2022-11-15T06:08:03.508Z,99841.97
2022-11-15T06:10:48.830Z,99840.13
2022-11-15T06:13:34.885Z,99851.81
2022-11-15T06:16:23.219Z,99836.41
2022-11-15T06:19:08.617Z,99838.66
2022-11-15T06:21:53.977Z,99839.47
2022-11-15T06:24:42.614Z,99842.13
2022-11-15T06:27:27.965Z,99836.59
2022-11-15T06:30:13.570Z,99839.75
2022-11-15T06:33:09.877Z,99838.75
2022-11-15T06:35:54.933Z,99844.22
2022-11-15T06:38:50.306Z,99846.31
2022-11-15T06:41:36.519Z,99853.88
2022-11-15T06:44:21.425Z,99860.56
2022-11-15T06:47:10.116Z,99851.84
2022-11-15T06:49:55.264Z,99850.72
2022-11-15T06:52:43.838Z,99847.06
2022-11-15T06:55:29.460Z,99840.97
2022-11-15T06:58:24.418Z,99843.09
2022-11-15T07:01:14.619Z,99841.66
2022-11-15T07:03:59.830Z,99846.31
2022-11-15T07:06:48.507Z,99835.19
2022-11-15T07:09:38.390Z,99841.72
2022-11-15T07:12:23.659Z,99832.59
2022-11-15T07:15:09.688Z,99832.97
2022-11-15T07:18:02.175Z,99832.38
2022-11-15T07:20:47.556Z,99820.31
2022-11-15T07:23:33.260Z,99816.44
2022-11-15T07:26:37.000Z,99806.44
2022-11-15T07:29:22.343Z,99806.09
2022-11-15T07:32:13.363Z,99803.47
2022-11-15T07:35:00.115Z,99795.75
2022-11-15T07:37:45.737Z,99789.56
2022-11-15T07:40:32.693Z,99786.88
2022-11-15T07:43:18.074Z,99775.28
2022-11-15T07:46:39.941Z,99778.47
2022-11-15T07:49:25.260Z,99772.66
2022-11-15T07:52:10.782Z,99772.84
2022-11-15T07:54:56.142Z,99761.91
2022-11-15T07:57:41.537Z,99754.91
2022-11-15T08:00:52.649Z,99752.19
2022-11-15T08:03:38.402Z,99737.13
2022-11-15T08:06:23.592Z,99742.22
2022-11-15T08:09:08.854Z,99730.69
2022-11-15T08:11:54.056Z,99720.81
2022-11-15T08:14:45.283Z,99712.31
2022-11-15T08:17:36.834Z,99709.91
2022-11-15T08:20:32.321Z,99699.41
2022-11-15T08:23:17.528Z,99695.94
2022-11-15T08:26:04.869Z,99691.38
2022-11-15T08:28:50.173Z,99686.00
2022-11-15T08:31:37.467Z,99680.53
2022-11-15T08:34:23.293Z,99686.72
2022-11-15T08:37:11.828Z,99674.72
2022-11-15T08:39:57.124Z,99677.91
2022-11-15T08:42:42.594Z,99673.47
2022-11-15T08:45:27.971Z,99666.94
2022-11-15T08:48:13.387Z,99668.44
2022-11-15T08:50:58.895Z,99657.63
2022-11-15T08:53:55.634Z,99665.34
2022-11-15T08:56:40.817Z,99655.06
2022-11-15T08:59:26.356Z,99653.41
2022-11-15T09:02:14.653Z,99654.00
2022-11-15T09:05:02.037Z,99659.59
2022-11-15T09:07:47.505Z,99652.34
2022-11-15T09:10:32.806Z,99639.22
2022-11-15T09:13:18.075Z,99648.72
2022-11-15T09:16:04.541Z,99647.34
2022-11-15T09:18:54.269Z,99641.03
2022-11-15T09:21:39.213Z,99644.88
2022-11-15T09:24:24.432Z,99643.94
2022-11-15T09:27:14.292Z,99650.84
2022-11-15T09:30:03.304Z,99649.09
2022-11-15T09:32:59.079Z,99648.16
2022-11-15T09:35:44.367Z,99650.47
2022-11-15T09:38:32.903Z,99655.03
2022-11-15T09:41:41.016Z,99641.81
2022-11-15T09:44:45.342Z,99641.06
2022-11-15T09:47:36.682Z,99643.06
2022-11-15T09:50:45.840Z,99639.44
2022-11-15T09:56:44.835Z,99642.06
2022-11-15T09:59:44.957Z,99637.31
2022-11-15T10:02:38.972Z,99638.38
2022-11-15T10:05:09.386Z,99642.22
2022-11-15T10:07:50.043Z,99641.38
2022-11-15T10:10:35.558Z,99640.81
2022-11-15T10:13:30.697Z,99622.22
2022-11-15T10:16:22.735Z,99615.28
2022-11-15T10:19:04.477Z,99609.34
2022-11-15T10:22:11.735Z,99613.34
2022-11-15T10:24:48.980Z,99612.53
2022-11-15T10:27:19.521Z,99602.47
2022-11-15T10:29:48.330Z,99592.63
2022-11-15T10:32:21.781Z,99596.63
2022-11-15T10:34:50.692Z,99598.25
2022-11-15T10:37:29.674Z,99581.56
2022-11-15T10:40:31.645Z,99575.69
2022-11-15T10:43:27.675Z,99583.13
2022-11-15T10:46:45.681Z,99582.31
2022-11-15T10:49:29.634Z,99579.16
2022-11-15T10:52:36.838Z,99566.31
2022-11-15T10:55:14.111Z,99568.06
2022-11-15T10:57:41.060Z,99567.25
2022-11-15T11:00:40.544Z,99560.59
2022-11-15T11:03:36.612Z,99552.09
2022-11-15T11:06:14.519Z,99554.53
2022-11-15T11:08:42.800Z,99552.66
2022-11-15T11:11:20.762Z,99551.56
2022-11-15T11:14:14.853Z,99543.63
2022-11-15T11:17:11.326Z,99544.44
2022-11-15T11:19:50.004Z,99537.28
2022-11-15T11:22:28.110Z,99536.50
2022-11-15T11:25:05.204Z,99535.94
2022-11-15T11:27:50.131Z,99528.00
2022-11-15T11:30:31.765Z,99530.44
2022-11-15T11:33:18.640Z,99531.72
2022-11-15T11:36:20.270Z,99528.75
2022-11-15T11:39:19.370Z,99527.09
2022-11-15T11:42:06.518Z,99519.72
2022-11-15T11:44:53.699Z,99523.09
2022-11-15T11:47:34.757Z,99512.03
2022-11-15T11:50:15.753Z,99510.63
2022-11-15T11:53:04.664Z,99509.38
2022-11-15T11:59:13.666Z,99505.53
2022-11-15T12:01:47.655Z,99509.84
2022-11-15T12:04:22.380Z,99502.34
2022-11-15T12:07:19.610Z,99502.16
2022-11-15T12:10:18.949Z,99491.94
2022-11-15T12:12:51.712Z,99498.72
2022-11-15T12:15:31.835Z,99490.50
2022-11-15T12:18:02.719Z,99486.66
2022-11-15T12:20:36.709Z,99480.59
2022-11-15T12:23:17.724Z,99475.03
2022-11-15T12:25:44.624Z,99465.69
2022-11-15T12:28:58.356Z,99467.75
2022-11-15T12:31:38.679Z,99462.69
2022-11-15T12:34:58.021Z,99459.56
2022-11-15T12:37:38.566Z,99462.47
2022-11-15T12:40:34.514Z,99461.69
2022-11-15T12:43:16.284Z,99462.38
2022-11-15T12:45:45.005Z,99452.84
2022-11-15T12:48:17.817Z,99460.84
2022-11-15T12:51:02.258Z,99457.09
2022-11-15T12:53:30.640Z,99450.06
2022-11-15T12:56:12.526Z,99451.31
2022-11-15T12:59:00.559Z,99452.06
2022-11-15T13:01:51.637Z,99455.56
2022-11-15T13:04:22.371Z,99449.19
2022-11-15T13:07:32.839Z,99443.25
2022-11-15T13:09:59.924Z,99450.47
2022-11-15T13:12:26.668Z,99441.69
2022-11-15T13:15:46.422Z,99446.50
2022-11-15T13:18:38.826Z,99445.19
2022-11-15T13:21:38.113Z,99434.66
2022-11-15T13:24:05.432Z,99436.28
2022-11-15T13:26:35.081Z,99429.72
2022-11-15T13:29:02.077Z,99426.03
2022-11-15T13:31:31.979Z,99423.09
2022-11-15T13:34:44.661Z,99423.69
2022-11-15T13:37:33.614Z,99419.78
2022-11-15T13:40:28.477Z,99417.28
2022-11-15T13:42:59.459Z,99419.25
2022-11-15T13:45:46.479Z,99417.25
2022-11-15T13:48:13.558Z,99405.38
2022-11-15T13:50:40.819Z,99404.09
2022-11-15T13:53:16.891Z,99406.63
2022-11-15T13:55:46.346Z,99402.25
2022-11-15T13:58:14.616Z,99404.22
2022-11-15T14:00:56.997Z,99399.75
2022-11-15T14:03:35.311Z,99397.41
2022-11-15T14:06:20.052Z,99387.78
2022-11-15T14:09:08.587Z,99389.91
2022-11-15T14:11:41.190Z,99389.03
2022-11-15T14:14:13.042Z,99390.34
2022-11-15T14:16:47.562Z,99387.41
2022-11-15T14:19:28.090Z,99388.84
2022-11-15T14:22:24.021Z,99386.06
2022-11-15T14:25:31.150Z,99379.00
2022-11-15T14:28:11.942Z,99394.53
2022-11-15T14:30:49.977Z,99392.13
2022-11-15T14:33:37.717Z,99383.38
2022-11-15T14:36:23.402Z,99376.69
2022-11-15T14:38:59.723Z,99373.19
2022-11-15T14:41:27.457Z,99360.97
2022-11-15T14:43:54.481Z,99369.50
2022-11-15T14:46:32.496Z,99373.03
2022-11-15T14:48:59.228Z,99372.94
2022-11-15T14:51:34.323Z,99369.81
2022-11-15T14:54:01.444Z,99363.72
2022-11-15T14:56:28.470Z,99355.28
2022-11-15T14:58:58.910Z,99349.50
2022-11-15T15:01:35.666Z,99354.88
2022-11-15T15:04:02.486Z,99352.31
2022-11-15T15:06:36.315Z,99357.16
2022-11-15T15:09:06.974Z,99355.53
2022-11-15T15:11:35.982Z,99347.25
2022-11-15T15:14:05.458Z,99349.97
2022-11-15T15:16:35.890Z,99354.31
2022-11-15T15:19:08.585Z,99353.19
2022-11-15T15:21:38.461Z,99345.66
2022-11-15T15:24:13.890Z,99339.78
2022-11-15T15:26:40.941Z,99336.31
2022-11-15T15:29:12.806Z,99335.75
2022-11-15T15:31:44.886Z,99328.25
2022-11-15T15:34:19.466Z,99326.50
2022-11-15T15:36:46.536Z,99327.91
2022-11-15T15:39:15.731Z,99323.72
2022-11-15T15:41:53.521Z,99323.38
2022-11-15T15:44:26.798Z,99318.78
2022-11-15T15:46:59.020Z,99317.63
2022-11-15T15:49:28.499Z,99314.59
2022-11-15T15:51:55.255Z,99311.31
2022-11-15T15:54:22.004Z,99311.41
2022-11-15T15:56:56.460Z,99300.94
2022-11-15T15:59:23.248Z,99294.63
2022-11-15T16:01:49.887Z,99301.88
2022-11-15T16:04:26.963Z,99298.38
2022-11-15T16:06:55.963Z,99304.41
2022-11-15T16:09:45.361Z,99292.13
2022-11-15T16:12:12.135Z,99296.09
2022-11-15T16:14:41.881Z,99288.75
2022-11-15T16:17:15.844Z,99280.56
2022-11-15T16:19:42.851Z,99287.50
2022-11-15T16:22:12.698Z,99274.56
2022-11-15T16:24:42.940Z,99274.22
2022-11-15T16:27:17.789Z,99277.31
2022-11-15T16:29:44.686Z,99264.72
2022-11-15T16:32:16.730Z,99254.31
2022-11-15T16:34:48.465Z,99252.91
2022-11-15T16:37:34.231Z,99257.97
2022-11-15T16:40:38.707Z,99260.41
2022-11-15T16:43:06.573Z,99257.97
2022-11-15T16:45:54.255Z,99251.41
2022-11-15T16:48:54.395Z,99246.03
2022-11-15T16:54:24.058Z,99234.28
2022-11-15T16:57:52.144Z,99232.28
2022-11-15T17:00:45.409Z,99237.84
2022-11-15T17:06:53.937Z,99222.78
2022-11-15T17:09:27.138Z,99218.88
2022-11-15T17:14:48.061Z,99212.53
2022-11-15T17:17:15.922Z,99215.44
2022-11-15T17:19:42.723Z,99209.97
2022-11-15T17:22:09.742Z,99217.50
2022-11-15T17:24:42.789Z,99217.75
2022-11-15T17:27:15.680Z,99214.50
2022-11-15T17:29:51.214Z,99211.75
2022-11-15T17:32:20.085Z,99207.56
2022-11-15T17:34:46.776Z,99207.91
2022-11-15T17:37:23.257Z,99207.00
2022-11-15T17:39:50.075Z,99206.44
2022-11-15T17:42:20.670Z,99207.13
2022-11-15T17:44:53.893Z,99204.81
2022-11-15T17:47:45.912Z,99204.06
2022-11-15T17:50:20.637Z,99208.44
2022-11-15T17:52:49.561Z,99207.13
2022-11-15T17:55:16.325Z,99204.59
2022-11-15T17:57:57.086Z,99207.38
2022-11-15T18:00:34.320Z,99202.13
2022-11-15T18:03:02.023Z,99209.72
2022-11-15T18:05:31.782Z,99205.41
2022-11-15T18:08:35.374Z,99203.78
2022-11-15T18:15:49.559Z,99205.16
2022-11-15T18:19:44.517Z,99211.22
2022-11-15T18:30:42.300Z,99207.16
2022-11-15T18:33:28.729Z,99203.97
2022-11-15T18:36:23.801Z,99196.53
2022-11-15T18:39:17.074Z,99194.22
2022-11-15T18:41:44.735Z,99194.69
2022-11-15T18:44:12.553Z,99195.84
2022-11-15T18:46:50.483Z,99194.22
2022-11-15T18:49:25.012Z,99185.13
2022-11-15T18:54:47.253Z,99175.47
2022-11-15T18:57:20.980Z,99184.44
2022-11-15T18:59:50.546Z,99174.06
2022-11-15T19:02:19.149Z,99165.78
2022-11-15T19:04:52.385Z,99171.16
2022-11-15T19:07:31.811Z,99164.63
2022-11-15T19:12:47.161Z,99153.78
2022-11-15T19:15:14.021Z,99153.78
2022-11-15T19:17:49.781Z,99143.50
2022-11-15T19:20:19.118Z,99144.91
2022-11-15T19:22:48.522Z,99147.13
2022-11-15T19:25:22.777Z,99145.81
2022-11-15T19:28:05.017Z,99145.97
2022-11-15T19:30:35.026Z,99140.34
2022-11-15T19:33:04.798Z,99144.75
2022-11-15T19:35:34.692Z,99133.25
2022-11-15T19:38:01.415Z,99129.47
2022-11-15T19:40:37.256Z,99129.41
2022-11-15T19:43:07.086Z,99125.31
2022-11-15T19:45:39.235Z,99134.28
2022-11-15T19:48:06.268Z,99116.19
2022-11-15T19:50:37.393Z,99121.09
2022-11-15T19:53:03.994Z,99121.88
2022-11-15T19:55:35.065Z,99117.00
2022-11-15T19:58:28.189Z,99112.09
2022-11-15T20:01:07.875Z,99111.41
2022-11-15T20:03:36.316Z,99110.47
2022-11-15T20:06:21.418Z,99112.22
2022-11-15T20:08:48.698Z,99107.00
2022-11-15T20:11:23.086Z,99101.75
2022-11-15T20:13:57.112Z,99101.28
2022-11-15T20:16:23.855Z,99099.94
2022-11-15T20:18:54.924Z,99094.78
2022-11-15T20:21:23.851Z,99098.09
2022-11-15T20:24:03.548Z,99090.47
2022-11-15T20:26:32.321Z,99087.91
2022-11-15T20:29:08.060Z,99088.53
2022-11-15T20:31:41.069Z,99086.13
2022-11-15T20:34:18.681Z,99078.22
2022-11-15T20:36:48.074Z,99076.91
2022-11-15T20:39:16.381Z,99084.53
2022-11-15T20:42:11.777Z,99087.78
2022-11-15T20:44:44.768Z,99082.28
2022-11-15T20:47:19.099Z,99083.25
2022-11-15T20:49:46.064Z,99087.47
2022-11-15T20:52:12.934Z,99089.66
2022-11-15T20:54:49.410Z,99091.25
2022-11-15T20:57:18.275Z,99093.50
2022-11-15T20:59:44.956Z,99086.38
2022-11-15T21:02:19.675Z,99075.78
2022-11-15T21:04:51.259Z,99078.03
2022-11-15T21:07:17.967Z,99079.00
2022-11-15T21:10:10.742Z,99081.09
2022-11-15T21:12:37.379Z,99085.31
2022-11-15T21:15:04.569Z,99079.03
2022-11-15T21:17:31.251Z,99070.84
2022-11-15T21:19:58.145Z,99071.66
2022-11-15T21:22:24.913Z,99074.84
2022-11-15T21:24:54.557Z,99057.22
2022-11-15T21:27:21.370Z,99051.69
2022-11-15T21:29:50.796Z,99063.94
2022-11-15T21:32:17.560Z,99062.81
2022-11-15T21:34:44.271Z,99072.28
2022-11-15T21:37:11.877Z,99058.75
2022-11-15T21:39:38.812Z,99051.75
2022-11-15T21:42:07.972Z,99050.44
2022-11-15T21:44:36.076Z,99057.66
2022-11-15T21:47:05.174Z,99038.56
2022-11-15T21:49:32.075Z,99044.06
2022-11-15T21:51:58.747Z,99041.47
2022-11-15T21:54:25.407Z,99032.22
2022-11-15T21:56:52.014Z,99035.00
2022-11-15T21:59:18.957Z,99024.31
2022-11-15T22:02:04.150Z,99022.63
2022-11-15T22:04:30.730Z,99020.28
2022-11-15T22:06:57.376Z,99032.41
2022-11-15T22:09:24.170Z,99026.31
2022-11-15T22:11:50.823Z,99025.47
2022-11-15T22:14:17.662Z,99027.66
2022-11-15T22:16:45.349Z,99030.91
2022-11-15T22:19:12.084Z,99025.59
2022-11-15T22:21:40.036Z,99016.38
2022-11-15T22:24:07.333Z,99019.56
2022-11-15T22:26:33.935Z,99017.38
2022-11-15T22:29:00.627Z,99003.28
2022-11-15T22:31:27.256Z,99001.19
2022-11-15T22:33:56.372Z,98997.19
2022-11-15T22:36:24.467Z,98999.72
2022-11-15T22:38:53.900Z,98995.81
2022-11-15T22:41:22.887Z,98991.50
2022-11-15T22:43:55.254Z,98988.25
2022-11-15T22:46:24.804Z,98979.47
2022-11-15T22:49:03.049Z,98988.25
2022-11-15T22:51:30.300Z,98989.00
2022-11-15T22:53:57.134Z,98987.25
2022-11-15T22:56:30.151Z,98993.44
2022-11-15T22:58:56.898Z,98982.63
2022-11-15T23:01:26.183Z,98979.31
2022-11-15T23:03:56.082Z,98982.88
2022-11-15T23:06:23.019Z,98979.31
2022-11-15T23:08:55.651Z,98971.19
2022-11-15T23:11:50.274Z,98974.19
2022-11-15T23:14:16.938Z,98978.31
2022-11-15T23:16:43.661Z,98974.66
2022-11-15T23:19:11.923Z,98980.19
2022-11-15T23:22:02.905Z,98968.00
2022-11-15T23:24:33.308Z,98962.56
2022-11-15T23:27:02.713Z,98959.53
2022-11-15T23:29:30.327Z,98956.38
2022-11-15T23:32:16.353Z,98950.53
2022-11-15T23:34:45.173Z,98943.50
2022-11-15T23:37:13.796Z,98948.88
2022-11-15T23:39:40.587Z,98944.50
2022-11-15T23:42:20.113Z,98936.16
2022-11-15T23:44:50.011Z,98940.38
2022-11-15T23:47:20.302Z,98937.34
2022-11-15T23:49:47.317Z,98940.25
2022-11-15T23:52:15.603Z,98946.03
2022-11-15T23:54:42.797Z,98951.97
2022-11-15T23:57:18.445Z,98953.38
2022-11-15T23:59:45.331Z,98945.53
